Time;durP1;ratioP1;P1;durP2;ratioP2;P2;SDS_P1;SDS_P2;PMS_P1;PMS_P2;Temp;Humidity;BMP_temperature;BMP_pressure;BME280_temperature;BME280_humidity;BME280_pressure;Samples;Min_cycle;Max_cycle;Signal;HPM_P1;HPM_P2
2021/11/14 00:01:14;;;;;;;109.30;53.38;;;;;;;4.31;72.45;97404.77;1653735;86;26122;-86
2021/11/14 00:03:41;;;;;;;109.97;53.78;;;;;;;4.29;72.49;97406.78;1642875;87;25837;-86
2021/11/14 00:06:10;;;;;;;112.12;52.73;;;;;;;4.29;72.49;97418.30;1642973;86;25852;-85
2021/11/14 00:08:38;;;;;;;117.82;55.08;;;;;;;4.28;72.47;97409.11;1643515;86;25696;-85
2021/11/14 00:11:09;;;;;;;112.37;54.75;;;;;;;4.28;72.50;97419.80;1641127;87;27142;-86
2021/11/14 00:13:39;;;;;;;112.37;55.80;;;;;;;4.28;72.51;97418.47;1656687;86;25732;-86
2021/11/14 00:16:10;;;;;;;111.88;53.63;;;;;;;4.27;72.56;97416.80;1647067;86;25769;-86
2021/11/14 00:18:36;;;;;;;117.97;56.30;;;;;;;4.28;72.56;97418.47;1619031;87;25823;-86
2021/11/14 00:21:02;;;;;;;110.17;55.17;;;;;;;4.27;72.60;97414.12;1636185;86;25290;-86
2021/11/14 00:23:29;;;;;;;117.00;57.25;;;;;;;4.27;72.63;97416.80;1643634;87;27466;-86
2021/11/14 00:25:56;;;;;;;112.70;54.65;;;;;;;4.25;72.58;97421.47;1643432;87;25724;-85
2021/11/14 00:28:23;;;;;;;114.97;56.23;;;;;;;4.23;72.64;97415.46;1643605;87;25853;-86
2021/11/14 00:30:49;;;;;;;114.62;54.53;;;;;;;4.22;72.65;97424.02;1641147;87;26546;-85
2021/11/14 00:33:17;;;;;;;115.42;55.10;;;;;;;4.23;72.72;97422.98;1648543;86;25846;-85
2021/11/14 00:35:44;;;;;;;112.90;53.20;;;;;;;4.24;72.73;97424.64;1657309;86;27445;-85
2021/11/14 00:38:11;;;;;;;119.30;56.28;;;;;;;4.23;72.71;97428.32;1636878;87;25712;-85
2021/11/14 00:40:39;;;;;;;119.82;55.30;;;;;;;4.20;72.78;97422.51;1650647;86;25927;-85
2021/11/14 00:43:07;;;;;;;123.20;56.40;;;;;;;4.21;72.80;97428.19;1633811;86;26448;-85
2021/11/14 00:45:36;;;;;;;125.75;56.42;;;;;;;4.16;72.83;97422.01;1641293;87;25814;-84
2021/11/14 00:48:03;;;;;;;127.32;56.98;;;;;;;4.15;72.88;97420.84;1637537;86;28158;-84
2021/11/14 00:50:31;;;;;;;119.93;54.95;;;;;;;4.14;72.95;97421.84;1656462;86;25980;-84
2021/11/14 00:53:00;;;;;;;119.28;56.40;;;;;;;4.15;73.00;97428.35;1643208;87;25932;-85
2021/11/14 00:55:28;;;;;;;112.10;53.80;;;;;;;4.14;73.06;97427.18;1630517;86;25788;-85
2021/11/14 00:57:54;;;;;;;116.77;53.45;;;;;;;4.13;73.03;97423.67;1635500;87;25350;-85
2021/11/14 01:00:25;;;;;;;117.28;55.40;;;;;;;4.12;73.02;97427.34;1656786;86;27380;-84
2021/11/14 01:02:52;;;;;;;113.75;52.00;;;;;;;4.12;73.05;97423.84;1644544;85;25906;-85
2021/11/14 01:05:21;;;;;;;116.40;53.50;;;;;;;4.10;73.13;97424.04;1643483;87;26564;-84
2021/11/14 01:07:47;;;;;;;117.67;53.48;;;;;;;4.06;73.12;97424.54;1634619;87;25803;-84
2021/11/14 01:10:18;;;;;;;119.47;52.17;;;;;;;4.05;73.17;97425.54;1626860;87;25846;-85
2021/11/14 01:12:45;;;;;;;125.20;52.58;;;;;;;4.02;73.21;97424.03;1641311;86;27484;-85
2021/11/14 01:15:15;;;;;;;124.00;54.25;;;;;;;4.02;73.26;97417.36;1624030;87;25773;-85
2021/11/14 01:17:43;;;;;;;119.77;52.90;;;;;;;4.01;73.30;97421.03;1587505;88;25781;-85
2021/11/14 01:20:19;;;;;;;123.95;53.35;;;;;;;4.01;73.36;97422.36;1612038;87;26502;-85
2021/11/14 01:22:47;;;;;;;121.40;51.08;;;;;;;3.96;73.40;97425.56;1606849;88;25894;-85
2021/11/14 01:25:16;;;;;;;116.00;49.35;;;;;;;3.95;73.50;97424.39;1611800;88;27434;-85
2021/11/14 01:27:43;;;;;;;119.62;51.77;;;;;;;3.90;73.55;97424.89;1616086;87;25999;-85
2021/11/14 01:30:24;;;;;;;105.72;47.45;;;;;;;3.88;73.62;97426.89;1616763;87;26026;-85
2021/11/14 01:32:53;;;;;;;107.50;48.60;;;;;;;3.85;73.63;97421.91;1617316;87;26444;-85
2021/11/14 01:35:21;;;;;;;112.70;50.00;;;;;;;3.84;73.69;97421.58;1623833;87;25831;-85
2021/11/14 01:37:48;;;;;;;101.92;46.92;;;;;;;3.81;73.79;97423.74;1629978;87;27421;-85
2021/11/14 01:40:20;;;;;;;106.97;48.23;;;;;;;3.81;73.77;97429.91;1613036;87;25369;-86
2021/11/14 01:42:48;;;;;;;113.62;48.35;;;;;;;3.77;73.83;97432.58;1612153;88;25319;-85
2021/11/14 01:45:16;;;;;;;105.92;46.08;;;;;;;3.73;73.88;97435.27;1612058;88;25832;-85
2021/11/14 01:47:43;;;;;;;96.28;42.55;;;;;;;3.72;73.93;97434.10;1596618;87;25715;-85
2021/11/14 01:50:14;;;;;;;97.12;43.10;;;;;;;3.71;73.95;97432.43;1623234;87;27369;-85
2021/11/14 01:52:44;;;;;;;97.60;42.05;;;;;;;3.70;73.97;97430.27;1613962;88;25775;-85
2021/11/14 01:55:13;;;;;;;104.87;44.90;;;;;;;3.67;73.97;97423.08;1612160;88;25298;-85
2021/11/14 01:57:39;;;;;;;99.90;42.20;;;;;;;3.65;74.00;97427.25;1612455;87;25743;-85
2021/11/14 02:00:14;;;;;;;91.00;40.43;;;;;;;3.59;73.96;97425.27;1611915;87;25764;-85
2021/11/14 02:02:41;;;;;;;97.15;41.95;;;;;;;3.56;74.00;97428.26;1610563;87;27418;-85
2021/11/14 02:05:10;;;;;;;88.97;41.48;;;;;;;3.55;74.05;97429.25;1607920;87;25807;-84
2021/11/14 02:07:37;;;;;;;84.13;39.10;;;;;;;3.51;74.08;97431.91;1610509;87;26416;-85
2021/11/14 02:10:07;;;;;;;91.20;40.83;;;;;;;3.46;74.07;97434.27;1594799;88;26577;-85
2021/11/14 02:12:34;;;;;;;95.22;41.68;;;;;;;3.42;74.11;97435.09;1610494;88;25756;-85
2021/11/14 02:15:01;;;;;;;87.27;38.42;;;;;;;3.41;74.16;97435.25;1616073;88;27485;-85
2021/11/14 02:17:28;;;;;;;84.00;40.40;;;;;;;3.39;74.12;97435.41;1629803;88;25835;-85
2021/11/14 02:19:54;;;;;;;89.95;41.77;;;;;;;3.37;74.13;97437.94;1602463;89;26427;-85
2021/11/14 02:22:21;;;;;;;77.30;36.60;;;;;;;3.37;74.24;97436.59;1602437;89;26525;-85
2021/11/14 02:24:48;;;;;;;75.67;36.73;;;;;;;3.38;74.27;97438.27;1588788;89;25753;-85
2021/11/14 02:27:15;;;;;;;77.22;37.65;;;;;;;3.37;74.20;97440.60;1602537;89;28274;-85
2021/11/14 02:29:42;;;;;;;75.90;35.40;;;;;;;3.33;74.13;97444.09;1596303;88;25830;-85
2021/11/14 02:32:11;;;;;;;70.80;35.20;;;;;;;3.30;74.10;97449.75;1613438;88;26553;-85
2021/11/14 02:34:39;;;;;;;73.62;35.23;;;;;;;3.25;74.07;97452.93;1612369;88;25799;-85
2021/11/14 02:37:06;;;;;;;73.87;34.90;;;;;;;3.21;74.08;97452.91;1623053;87;25843;-86
2021/11/14 02:39:33;;;;;;;68.45;34.05;;;;;;;3.18;74.07;97455.91;1602558;89;28380;-85
2021/11/14 02:41:59;;;;;;;66.12;34.92;;;;;;;3.17;74.15;97452.89;1587403;88;25271;-85
2021/11/14 02:44:26;;;;;;;68.92;33.23;;;;;;;3.15;74.16;97457.55;1602527;89;26511;-86
2021/11/14 02:46:53;;;;;;;70.67;35.48;;;;;;;3.15;74.14;97456.72;1602612;89;25879;-86
2021/11/14 02:49:20;;;;;;;67.78;36.23;;;;;;;3.17;74.21;97458.73;1602626;88;25778;-86
2021/11/14 02:51:47;;;;;;;68.35;35.98;;;;;;;3.16;74.24;97459.22;1602420;88;27387;-86
2021/11/14 02:54:15;;;;;;;69.97;35.35;;;;;;;3.17;74.22;97458.23;1602388;88;25801;-86
2021/11/14 02:56:42;;;;;;;69.45;36.85;;;;;;;3.17;74.25;97460.90;1592627;89;25741;-85
2021/11/14 02:59:10;;;;;;;69.30;35.00;;;;;;;3.19;74.29;97455.41;1613523;88;25747;-86
2021/11/14 03:01:41;;;;;;;69.30;34.43;;;;;;;3.19;74.28;97456.23;1616099;88;25817;-85
2021/11/14 03:04:17;;;;;;;74.53;36.68;;;;;;;3.17;74.26;97453.39;1629889;88;27607;-86
2021/11/14 03:06:44;;;;;;;76.45;35.45;;;;;;;3.16;74.30;97459.22;1602831;87;25848;-86
2021/11/14 03:09:11;;;;;;;74.12;37.33;;;;;;;3.16;74.29;97456.56;1622040;88;25880;-86
2021/11/14 03:11:38;;;;;;;73.85;34.78;;;;;;;3.16;74.33;97457.89;1622900;86;26493;-85
2021/11/14 03:14:05;;;;;;;75.30;36.63;;;;;;;3.15;74.33;97452.72;1633276;86;25803;-86
2021/11/14 03:16:33;;;;;;;81.22;38.28;;;;;;;3.15;74.37;97452.22;1634618;86;27403;-86
2021/11/14 03:19:00;;;;;;;72.80;35.70;;;;;;;3.15;74.39;97448.72;1623871;88;25852;-86
2021/11/14 03:21:27;;;;;;;68.07;36.05;;;;;;;3.12;74.35;97451.73;1635778;87;25935;-86
2021/11/14 03:23:55;;;;;;;70.30;35.52;;;;;;;3.08;74.39;97448.55;1616918;87;25960;-86
2021/11/14 03:26:24;;;;;;;63.98;31.48;;;;;;;3.12;74.48;97451.73;1639337;87;25838;-86
2021/11/14 03:28:50;;;;;;;68.02;34.00;;;;;;;3.06;74.35;97444.38;1653857;86;27405;-86
2021/11/14 03:31:17;;;;;;;63.33;34.00;;;;;;;3.02;74.35;97447.86;1653490;86;26281;-86
2021/11/14 03:33:44;;;;;;;65.37;32.83;;;;;;;3.00;74.36;97448.55;1642993;87;25730;-86
2021/11/14 03:36:16;;;;;;;61.80;32.28;;;;;;;2.98;74.30;97454.53;1642912;87;25791;-86
2021/11/14 03:38:48;;;;;;;65.08;31.33;;;;;;;2.95;74.33;97453.52;1641462;87;25827;-86
2021/11/14 03:41:25;;;;;;;58.75;32.23;;;;;;;2.90;74.29;97451.33;1653539;86;32358;-86
2021/11/14 03:43:53;;;;;;;59.20;29.85;;;;;;;2.84;74.28;97451.16;1653748;86;25826;-86
2021/11/14 03:46:21;;;;;;;53.23;29.00;;;;;;;2.79;74.34;97452.12;1642840;86;25756;-86
2021/11/14 03:48:50;;;;;;;55.52;30.05;;;;;;;2.75;74.37;97446.80;1642964;87;25744;-86
2021/11/14 03:51:18;;;;;;;56.30;30.23;;;;;;;2.68;74.26;97449.25;1641449;87;25941;-87
2021/11/14 03:53:45;;;;;;;56.88;29.18;;;;;;;2.64;74.32;97451.92;1653781;86;28291;-86
2021/11/14 03:56:11;;;;;;;57.90;29.45;;;;;;;2.60;74.37;97451.06;1653635;86;25789;-86
2021/11/14 03:58:38;;;;;;;60.40;31.35;;;;;;;2.53;74.40;97449.55;1642982;86;26473;-86
2021/11/14 04:01:12;;;;;;;55.70;29.87;;;;;;;2.53;74.48;97450.39;1642496;87;25765;-86
2021/11/14 04:03:39;;;;;;;48.95;27.80;;;;;;;2.54;74.46;97461.35;1626976;86;25892;-85
2021/11/14 04:06:07;;;;;;;49.40;26.77;;;;;;;2.50;74.37;97458.69;1635023;86;27496;-86
2021/11/14 04:08:34;;;;;;;52.03;28.57;;;;;;;2.49;74.39;97462.84;1647462;86;25916;-86
2021/11/14 04:11:03;;;;;;;52.85;27.58;;;;;;;2.48;74.36;97467.34;1638966;87;25818;-86
2021/11/14 04:13:30;;;;;;;48.90;28.55;;;;;;;2.46;74.36;97467.98;1640608;87;26217;-85
2021/11/14 04:15:59;;;;;;;53.90;28.23;;;;;;;2.42;74.35;97473.28;1653913;86;25784;-86
2021/11/14 04:18:26;;;;;;;51.45;29.55;;;;;;;2.37;74.33;97475.61;1653933;86;28576;-86
2021/11/14 04:20:53;;;;;;;53.35;28.65;;;;;;;2.32;74.29;97470.41;1642813;87;26665;-86
2021/11/14 04:23:19;;;;;;;49.48;27.90;;;;;;;2.30;74.39;97479.05;1641517;87;26425;-86
2021/11/14 04:25:47;;;;;;;48.52;27.93;;;;;;;2.29;74.34;97477.41;1653774;86;25780;-85
2021/11/14 04:28:14;;;;;;;49.67;27.50;;;;;;;2.23;74.31;97478.02;1653564;86;25760;-86
2021/11/14 04:30:42;;;;;;;48.68;26.52;;;;;;;2.22;74.37;97477.18;1647481;86;28320;-85
2021/11/14 04:33:10;;;;;;;51.33;28.40;;;;;;;2.21;74.36;97482.16;1653613;86;25390;-85
2021/11/14 04:35:37;;;;;;;51.77;29.75;;;;;;;2.16;74.37;97486.66;1642854;87;25966;-85
2021/11/14 04:38:05;;;;;;;48.38;25.62;;;;;;;2.15;74.47;97492.97;1642911;87;26611;-85
2021/11/14 04:40:36;;;;;;;49.30;26.73;;;;;;;2.17;74.49;97494.14;1641424;87;25826;-85
2021/11/14 04:43:00;;;;;;;56.70;31.33;;;;;;;2.17;74.50;97506.13;1653628;85;28318;-85
2021/11/14 04:45:27;;;;;;;46.40;28.27;;;;;;;2.14;74.50;97505.10;1653594;86;25846;-85
2021/11/14 04:47:53;;;;;;;50.30;27.45;;;;;;;2.13;74.57;97504.27;1643056;87;25687;-86
2021/11/14 04:50:23;;;;;;;49.13;27.50;;;;;;;2.14;74.63;97507.27;1642944;87;25742;-85
2021/11/14 04:52:52;;;;;;;49.45;25.85;;;;;;;2.14;74.67;97513.09;1641430;87;25912;-85
2021/11/14 04:55:19;;;;;;;51.80;26.42;;;;;;;2.13;74.78;97518.08;1653755;86;27483;-85
2021/11/14 04:57:52;;;;;;;52.13;27.07;;;;;;;2.10;74.76;97513.05;1653596;86;25856;-86
2021/11/14 05:00:26;;;;;;;51.40;27.30;;;;;;;2.09;74.79;97516.70;1642843;87;25857;-85
2021/11/14 05:02:53;;;;;;;49.93;26.65;;;;;;;2.08;74.87;97512.37;1642332;86;26368;-87
2021/11/14 05:05:20;;;;;;;53.23;28.00;;;;;;;2.11;74.98;97518.72;1641490;87;25803;-86
2021/11/14 05:07:47;;;;;;;50.12;27.25;;;;;;;2.15;75.05;97518.27;1658685;86;27396;-86
2021/11/14 05:10:14;;;;;;;53.25;26.50;;;;;;;2.19;75.04;97517.44;1695183;84;25767;-86
2021/11/14 05:12:41;;;;;;;60.98;29.32;;;;;;;2.21;75.01;97516.79;1664555;86;25745;-86
2021/11/14 05:15:08;;;;;;;59.95;29.72;;;;;;;2.22;75.02;97521.63;1695236;84;25814;-84
2021/11/14 05:17:36;;;;;;;51.80;28.15;;;;;;;2.26;75.05;97518.50;1664576;86;25694;-85
2021/11/14 05:20:06;;;;;;;56.08;29.02;;;;;;;2.27;75.04;97528.66;1695431;84;27891;-85
2021/11/14 05:22:33;;;;;;;62.60;30.20;;;;;;;2.26;74.97;97534.48;1661981;86;25725;-84
2021/11/14 05:24:59;;;;;;;58.80;30.20;;;;;;;2.21;74.98;97532.77;1679353;84;25782;-84
2021/11/14 05:27:26;;;;;;;62.83;31.50;;;;;;;2.17;75.03;97535.42;1664285;86;26062;-86
2021/11/14 05:29:53;;;;;;;58.68;31.55;;;;;;;2.15;75.11;97532.08;1695309;84;25725;-85
2021/11/14 05:32:19;;;;;;;64.07;33.18;;;;;;;2.12;75.14;97545.70;1695371;84;27393;-86
2021/11/14 05:34:46;;;;;;;57.13;30.68;;;;;;;2.08;75.22;97546.48;1664530;86;25725;-85
2021/11/14 05:37:12;;;;;;;64.00;32.65;;;;;;;2.08;75.27;97549.64;1695438;84;25739;-85
2021/11/14 05:39:39;;;;;;;66.67;32.42;;;;;;;2.09;75.39;97554.82;1659749;86;26519;-86
2021/11/14 05:42:06;;;;;;;62.73;32.73;;;;;;;2.10;75.43;97545.84;1694206;84;25743;-85
2021/11/14 05:44:33;;;;;;;59.73;30.52;;;;;;;2.11;75.42;97557.34;1695299;84;28266;-85
2021/11/14 05:47:00;;;;;;;66.47;33.08;;;;;;;2.11;75.48;97554.67;1695256;84;25832;-85
2021/11/14 05:49:27;;;;;;;64.50;32.48;;;;;;;2.14;75.52;97555.70;1695435;84;25486;-85
2021/11/14 05:51:53;;;;;;;65.52;33.63;;;;;;;2.16;75.51;97563.88;1662652;86;26388;-86
2021/11/14 05:54:20;;;;;;;65.25;31.40;;;;;;;2.18;75.55;97569.03;1678036;84;25793;-85
2021/11/14 05:56:46;;;;;;;68.00;33.10;;;;;;;2.20;75.54;97569.71;1664707;86;27435;-85
2021/11/14 06:01:59;;;;;;;65.12;31.62;;;;;;;2.18;75.55;97582.34;1695409;84;26405;-85
2021/11/14 06:04:29;;;;;;;63.92;29.35;;;;;;;2.15;75.55;97586.17;1663989;85;25971;-85
2021/11/14 06:06:51;;;;;;;60.50;30.88;;;;;;;2.16;75.63;97577.69;1695001;84;25806;-86
2021/11/14 06:09:18;;;;;;;62.75;29.42;;;;;;;2.15;75.62;97587.51;1687156;84;27306;-86
2021/11/14 06:11:45;;;;;;;57.45;29.72;;;;;;;2.16;75.70;97584.35;1686855;84;25450;-85
2021/11/14 06:14:11;;;;;;;62.53;29.95;;;;;;;2.14;75.65;97582.33;1653756;86;26217;-86
2021/11/14 06:16:38;;;;;;;56.75;27.73;;;;;;;2.08;75.57;97592.25;1642969;86;25686;-85
2021/11/14 06:19:05;;;;;;;51.88;28.10;;;;;;;2.04;75.68;97594.41;1641567;87;25811;-85
2021/11/14 06:21:32;;;;;;;54.33;28.20;;;;;;;2.07;75.74;97599.89;1653998;86;27465;-85
2021/11/14 06:23:58;;;;;;;52.85;28.23;;;;;;;2.03;75.69;97599.87;1653772;86;25262;-85
2021/11/14 06:26:25;;;;;;;49.25;27.10;;;;;;;2.01;75.74;97607.18;1642976;87;25769;-85
2021/11/14 06:28:52;;;;;;;58.68;28.73;;;;;;;2.00;75.77;97615.66;1642920;87;25832;-85
2021/11/14 06:31:18;;;;;;;54.20;28.85;;;;;;;2.00;75.82;97618.81;1641529;87;25783;-85
2021/11/14 06:33:45;;;;;;;52.08;28.83;;;;;;;2.03;75.91;97621.19;1653887;86;27380;-85
2021/11/14 06:36:12;;;;;;;55.25;28.25;;;;;;;2.07;75.91;97630.02;1653705;86;26427;-85
2021/11/14 06:38:38;;;;;;;51.88;29.37;;;;;;;2.09;75.85;97625.88;1642978;86;25814;-85
2021/11/14 06:41:05;;;;;;;51.10;26.27;;;;;;;2.09;75.83;97629.38;1641619;87;26395;-85
2021/11/14 06:43:32;;;;;;;54.48;27.22;;;;;;;2.09;75.80;97628.55;1653738;86;25900;-85
2021/11/14 06:45:58;;;;;;;55.00;26.80;;;;;;;2.09;75.82;97632.53;1653890;86;27377;-85
2021/11/14 06:48:25;;;;;;;48.80;27.32;;;;;;;2.13;75.83;97637.42;1642759;87;25804;-85
2021/11/14 06:50:51;;;;;;;52.13;28.27;;;;;;;2.14;75.74;97635.10;1642945;87;25844;-85
2021/11/14 06:53:18;;;;;;;58.52;30.05;;;;;;;2.15;75.70;97641.27;1641483;87;26395;-85
2021/11/14 06:55:45;;;;;;;53.17;30.05;;;;;;;2.16;75.71;97641.61;1653828;86;26393;-85
2021/11/14 06:58:11;;;;;;;57.62;31.87;;;;;;;2.18;75.72;97636.94;1653910;86;27445;-86
2021/11/14 07:00:41;;;;;;;59.58;30.88;;;;;;;2.22;75.78;97640.98;1642847;86;25791;-85
2021/11/14 07:03:06;;;;;;;64.67;32.78;;;;;;;2.28;75.82;97639.05;1642858;86;25784;-85
2021/11/14 07:05:33;;;;;;;61.53;33.08;;;;;;;2.33;75.84;97640.73;1641773;87;26227;-86
2021/11/14 07:08:00;;;;;;;58.65;29.50;;;;;;;2.39;75.84;97645.47;1656584;85;25683;-86
2021/11/14 07:10:27;;;;;;;61.33;32.38;;;;;;;2.43;75.77;97646.81;1695425;84;27502;-86
2021/11/14 07:12:54;;;;;;;58.00;31.57;;;;;;;2.47;75.74;97654.00;1664619;86;26313;-86
2021/11/14 07:15:21;;;;;;;61.95;33.18;;;;;;;2.51;75.74;97644.23;1695125;84;26310;-86
2021/11/14 07:17:48;;;;;;;58.70;31.80;;;;;;;2.54;75.68;97650.55;1695390;84;25845;-85
2021/11/14 07:20:17;;;;;;;58.30;32.48;;;;;;;2.58;75.64;97648.92;1664604;86;25269;-86
2021/11/14 07:22:44;;;;;;;55.25;30.80;;;;;;;2.61;75.64;97649.95;1695395;84;28029;-85
2021/11/14 07:25:18;;;;;;;57.75;32.08;;;;;;;2.65;75.68;97655.32;1664528;86;26026;-85
2021/11/14 07:27:52;;;;;;;51.28;29.87;;;;;;;2.68;75.62;97655.83;1695329;84;25316;-85
2021/11/14 07:30:22;;;;;;;49.70;29.37;;;;;;;2.68;75.55;97650.48;1664765;86;26446;-85
2021/11/14 07:32:49;;;;;;;52.53;28.55;;;;;;;2.72;75.52;97660.36;1695155;84;25727;-85
2021/11/14 07:35:19;;;;;;;51.25;26.90;;;;;;;2.73;75.46;97662.03;1695448;84;28207;-84
2021/11/14 07:37:46;;;;;;;50.20;29.67;;;;;;;2.77;75.39;97656.73;1645489;86;25440;-85
2021/11/14 07:40:15;;;;;;;46.48;26.52;;;;;;;2.78;75.31;97665.88;1695623;84;25766;-84
2021/11/14 07:42:46;;;;;;;48.00;28.45;;;;;;;2.83;75.23;97662.77;1695370;84;25791;-84
2021/11/14 07:45:16;;;;;;;48.05;28.75;;;;;;;2.84;75.21;97661.27;1664650;86;25752;-85
2021/11/14 07:47:43;;;;;;;58.85;32.88;;;;;;;2.89;75.19;97660.81;1695179;84;27444;-85
2021/11/14 07:50:11;;;;;;;59.83;33.78;;;;;;;2.96;75.25;97665.01;1664460;86;25809;-85
2021/11/14 07:52:38;;;;;;;50.80;29.63;;;;;;;3.01;75.26;97669.39;1681423;84;26157;-85
2021/11/14 07:55:08;;;;;;;51.83;29.42;;;;;;;3.04;75.19;97669.89;1692832;84;25752;-85
2021/11/14 07:57:38;;;;;;;51.80;30.55;;;;;;;3.10;75.11;97672.44;1695341;84;25683;-85
2021/11/14 08:00:07;;;;;;;51.60;29.87;;;;;;;3.14;75.10;97671.13;1695371;84;28214;-85
2021/11/14 08:02:33;;;;;;;51.50;30.35;;;;;;;3.17;75.01;97676.97;1664590;86;25725;-85
2021/11/14 08:05:00;;;;;;;53.23;29.20;;;;;;;3.23;74.87;97678.17;1695317;84;25701;-85
2021/11/14 08:07:27;;;;;;;52.05;29.32;;;;;;;3.24;74.86;97670.02;1664508;86;26533;-85
2021/11/14 08:09:54;;;;;;;52.17;29.80;;;;;;;3.26;74.83;97680.00;1687198;84;25765;-85
2021/11/14 08:12:20;;;;;;;55.28;30.88;;;;;;;3.33;74.84;97674.05;1653797;86;27400;-85
2021/11/14 08:14:47;;;;;;;49.45;28.50;;;;;;;3.38;74.93;97675.75;1642788;86;25798;-85
2021/11/14 08:17:14;;;;;;;48.42;29.57;;;;;;;3.43;74.84;97677.43;1641176;87;25926;-85
2021/11/14 08:19:40;;;;;;;50.63;28.95;;;;;;;3.48;74.79;97681.80;1653945;86;26373;-85
2021/11/14 08:22:07;;;;;;;52.15;29.95;;;;;;;3.51;74.63;97678.78;1653757;86;25791;-86
2021/11/14 08:24:33;;;;;;;53.30;30.77;;;;;;;3.56;74.71;97673.81;1642813;87;27423;-86
2021/11/14 08:27:00;;;;;;;58.38;32.15;;;;;;;3.62;74.70;97679.33;1642153;87;25835;-86
2021/11/14 08:29:27;;;;;;;56.65;31.10;;;;;;;3.66;74.67;97674.52;1641202;87;25859;-86
2021/11/14 08:31:53;;;;;;;54.27;32.08;;;;;;;3.72;74.68;97680.56;1653993;86;25792;-85
2021/11/14 08:34:20;;;;;;;64.10;35.92;;;;;;;3.78;74.58;97678.56;1653997;86;25779;-85
2021/11/14 08:36:47;;;;;;;58.28;32.38;;;;;;;3.81;74.52;97676.91;1642861;87;27388;-85
2021/11/14 08:39:13;;;;;;;52.10;30.52;;;;;;;3.86;74.46;97685.28;1642753;87;25865;-85
2021/11/14 08:41:40;;;;;;;53.87;30.43;;;;;;;3.90;74.43;97679.94;1641515;87;25922;-85
2021/11/14 08:44:07;;;;;;;54.25;32.17;;;;;;;3.94;74.34;97683.13;1653665;86;25813;-85
2021/11/14 08:46:34;;;;;;;49.30;29.87;;;;;;;3.98;74.30;97682.61;1653611;86;25751;-85
2021/11/14 08:49:02;;;;;;;48.50;27.67;;;;;;;4.02;74.10;97685.80;1642997;87;27475;-85
2021/11/14 08:51:29;;;;;;;43.23;26.45;;;;;;;4.03;74.06;97684.80;1641436;87;25860;-85
2021/11/14 08:53:58;;;;;;;44.33;26.27;;;;;;;4.07;73.96;97688.00;1651184;86;25864;-86
2021/11/14 08:56:27;;;;;;;46.02;27.32;;;;;;;4.09;73.84;97685.50;1642080;86;25762;-85
2021/11/14 08:58:54;;;;;;;44.35;27.52;;;;;;;4.12;73.73;97686.48;1646589;86;25273;-84
2021/11/14 09:01:21;;;;;;;46.73;27.62;;;;;;;4.16;73.80;97692.34;1643004;86;27436;-85
2021/11/14 09:03:48;;;;;;;45.40;27.82;;;;;;;4.21;73.78;97694.05;1642911;87;25960;-85
2021/11/14 09:06:15;;;;;;;54.42;30.45;;;;;;;4.31;73.77;97701.40;1641576;87;25704;-84
2021/11/14 09:08:42;;;;;;;53.60;31.40;;;;;;;4.40;73.64;97695.55;1646583;86;26215;-85
2021/11/14 09:11:09;;;;;;;51.35;31.45;;;;;;;4.47;73.67;97690.70;1648341;86;25667;-85
2021/11/14 09:13:37;;;;;;;57.93;33.25;;;;;;;4.54;73.47;97696.23;1643391;85;27296;-85
2021/11/14 09:16:04;;;;;;;58.23;34.48;;;;;;;4.57;73.39;97698.09;1654893;86;25736;-85
2021/11/14 09:18:31;;;;;;;57.62;34.10;;;;;;;4.58;73.36;97686.89;1656824;85;25344;-85
2021/11/14 09:20:58;;;;;;;59.20;34.48;;;;;;;4.61;73.30;97690.05;1643848;87;25937;-86
2021/11/14 09:23:27;;;;;;;58.33;34.63;;;;;;;4.63;73.27;97697.41;1643746;87;25723;-86
2021/11/14 09:25:53;;;;;;;63.55;36.85;;;;;;;4.66;73.25;97702.43;1643659;86;27402;-85
2021/11/14 09:28:20;;;;;;;61.50;35.25;;;;;;;4.70;73.30;97698.43;1641465;87;25778;-85
2021/11/14 09:30:50;;;;;;;62.00;34.98;;;;;;;4.75;73.29;97700.58;1656824;86;25728;-85
2021/11/14 09:33:22;;;;;;;59.08;33.88;;;;;;;4.80;73.34;97696.91;1656914;86;25750;-85
2021/11/14 09:35:49;;;;;;;60.28;35.98;;;;;;;4.86;73.40;97695.39;1643848;86;25851;-85
2021/11/14 09:38:15;;;;;;;64.72;37.50;;;;;;;4.94;73.28;97695.41;1643717;87;27429;-85
2021/11/14 09:40:42;;;;;;;62.53;37.33;;;;;;;5.02;73.27;97691.37;1643686;87;25755;-85
2021/11/14 09:43:10;;;;;;;67.17;37.60;;;;;;;5.07;73.24;97684.48;1641566;87;25751;-85
2021/11/14 09:45:37;;;;;;;71.37;41.58;;;;;;;5.13;73.09;97686.16;1656553;86;25883;-85
2021/11/14 09:48:06;;;;;;;72.78;43.45;;;;;;;5.17;72.96;97691.02;1656917;86;25733;-86
2021/11/14 09:50:33;;;;;;;67.47;38.88;;;;;;;5.22;72.96;97692.66;1643821;87;27443;-85
2021/11/14 09:53:00;;;;;;;58.78;32.05;;;;;;;5.28;72.92;97689.31;1643602;87;25792;-85
2021/11/14 09:55:33;;;;;;;51.35;28.45;;;;;;;5.35;72.97;97691.63;1643756;86;25733;-86
2021/11/14 09:57:56;;;;;;;46.28;26.07;;;;;;;5.41;73.04;97692.30;1640736;87;25823;-87
2021/11/14 10:00:26;;;;;;;37.20;22.52;;;;;;;5.48;73.06;97695.10;1656710;86;25742;-87
2021/11/14 10:02:51;;;;;;;37.17;22.32;;;;;;;5.55;72.99;97692.59;1656690;86;27386;-87
2021/11/14 10:05:18;;;;;;;38.63;22.52;;;;;;;5.57;72.86;97694.56;1643726;87;25808;-86
2021/11/14 10:07:57;;;;;;;41.10;23.90;;;;;;;5.62;72.85;97696.23;1643516;87;25696;-86
2021/11/14 10:10:29;;;;;;;39.30;22.05;;;;;;;5.68;72.91;97689.66;1642856;86;26491;-86
2021/11/14 10:12:56;;;;;;;38.60;20.50;;;;;;;5.73;72.85;97686.48;1646993;86;25745;-86
2021/11/14 10:15:25;;;;;;;41.23;23.35;;;;;;;5.77;72.71;97685.13;1620878;88;27448;-86
2021/11/14 10:17:55;;;;;;;40.67;23.55;;;;;;;5.82;72.64;97693.45;1625573;88;25836;-86
2021/11/14 10:20:26;;;;;;;38.35;20.97;;;;;;;5.88;72.62;97699.50;1624461;87;25808;-85
2021/11/14 10:22:58;;;;;;;31.37;19.55;;;;;;;5.91;72.46;97697.83;1622939;88;25693;-85
2021/11/14 10:25:25;;;;;;;37.85;21.57;;;;;;;5.89;72.33;97697.16;1641371;86;25743;-85
2021/11/14 10:28:01;;;;;;;35.60;21.35;;;;;;;5.86;72.32;97700.15;1653576;86;28120;-85
2021/11/14 10:30:31;;;;;;;33.13;20.15;;;;;;;5.86;72.35;97704.16;1642660;86;26476;-85
2021/11/14 10:33:08;;;;;;;39.18;21.25;;;;;;;5.88;72.29;97702.66;1643030;87;25727;-85
2021/11/14 10:35:36;;;;;;;34.95;22.22;;;;;;;5.90;72.28;97700.17;1641671;87;25800;-86
2021/11/14 10:38:08;;;;;;;36.88;21.87;;;;;;;5.92;72.29;97702.64;1651580;86;25652;-85
2021/11/14 10:40:40;;;;;;;37.65;21.85;;;;;;;5.95;72.28;97704.48;1654012;86;27477;-85
2021/11/14 10:43:07;;;;;;;37.03;21.93;;;;;;;5.97;72.22;97710.50;1646646;86;25855;-85
2021/11/14 10:45:38;;;;;;;40.58;23.10;;;;;;;5.96;72.11;97712.02;1640486;86;25875;-85
2021/11/14 10:48:20;;;;;;;39.88;21.93;;;;;;;5.95;72.12;97711.18;1622627;88;26538;-85
2021/11/14 10:50:54;;;;;;;35.00;21.68;;;;;;;5.99;72.11;97708.49;1638522;86;25739;-85
2021/11/14 10:53:29;;;;;;;37.55;22.48;;;;;;;6.03;72.08;97715.18;1625847;88;28200;-86
2021/11/14 10:56:00;;;;;;;37.63;22.45;;;;;;;6.06;72.02;97716.65;1625520;88;25974;-85
2021/11/14 10:58:30;;;;;;;38.48;21.87;;;;;;;6.06;71.93;97713.47;1625762;87;25805;-86
2021/11/14 11:01:01;;;;;;;39.48;23.40;;;;;;;6.07;71.98;97715.14;1625700;87;25729;-86
2021/11/14 11:03:41;;;;;;;41.88;24.15;;;;;;;6.09;71.93;97719.83;1625863;87;25709;-86
2021/11/14 11:06:13;;;;;;;40.15;24.07;;;;;;;6.12;71.91;97714.13;1625842;88;27389;-85
2021/11/14 11:08:44;;;;;;;44.38;25.80;;;;;;;6.14;71.86;97719.31;1652945;86;25824;-86
2021/11/14 11:11:11;;;;;;;47.50;25.88;;;;;;;6.06;71.88;97720.17;1653785;86;26353;-86
2021/11/14 11:13:42;;;;;;;43.15;25.57;;;;;;;6.09;71.98;97721.67;1643083;87;26684;-86
2021/11/14 11:16:26;;;;;;;41.28;24.98;;;;;;;6.12;72.00;97723.50;1643005;86;25773;-86
2021/11/14 11:19:09;;;;;;;44.05;25.02;;;;;;;6.07;71.82;97719.16;1642985;86;27412;-86
2021/11/14 11:21:41;;;;;;;50.92;30.50;;;;;;;6.08;71.88;97721.34;1633134;87;25858;-85
2021/11/14 11:24:18;;;;;;;51.60;29.52;;;;;;;6.07;71.83;97719.16;1636297;86;25820;-85
2021/11/14 11:27:05;;;;;;;55.00;29.77;;;;;;;6.06;71.88;97717.48;1649719;86;26784;-86
2021/11/14 11:29:35;;;;;;;53.68;29.87;;;;;;;6.11;72.02;97721.83;1643994;86;25805;-86
2021/11/14 11:32:03;;;;;;;53.13;30.15;;;;;;;6.20;72.00;97715.07;1641617;87;27499;-86